createdAt,value
2023-02-16T00:01:17.062Z,28.83
2023-02-16T00:03:28.459Z,29.67
2023-02-16T00:05:34.958Z,33.40
2023-02-16T00:07:36.523Z,29.63
2023-02-16T00:09:38.164Z,25.93
2023-02-16T00:12:02.562Z,29.10
2023-02-16T00:14:07.143Z,32.27
2023-02-16T00:16:14.613Z,30.83
2023-02-16T00:18:19.235Z,31.60
2023-02-16T00:20:21.037Z,27.43
2023-02-16T00:22:22.575Z,29.63
2023-02-16T00:24:28.885Z,28.57
2023-02-16T00:26:34.149Z,28.73
2023-02-16T00:28:38.474Z,30.27
2023-02-16T00:30:40.261Z,30.27
2023-02-16T00:32:42.215Z,25.37
2023-02-16T00:34:45.545Z,28.33
2023-02-16T00:36:47.076Z,28.53
2023-02-16T00:38:48.685Z,27.23
2023-02-16T00:40:50.431Z,28.53
2023-02-16T00:42:52.323Z,31.03
2023-02-16T00:44:58.759Z,27.73
2023-02-16T00:47:19.955Z,27.03
2023-02-16T00:49:22.876Z,26.30
2023-02-16T00:51:26.283Z,30.10
2023-02-16T00:53:37.316Z,27.17
2023-02-16T00:55:43.626Z,27.60
2023-02-16T00:57:52.032Z,27.03
2023-02-16T01:00:19.792Z,29.73
2023-02-16T01:02:22.637Z,32.53
2023-02-16T01:04:24.542Z,29.93
2023-02-16T01:06:44.734Z,30.07
2023-02-16T01:09:04.612Z,27.97
2023-02-16T01:11:10.292Z,29.17
2023-02-16T01:13:15.420Z,31.93
2023-02-16T01:15:22.502Z,30.50
2023-02-16T01:17:25.353Z,29.57
2023-02-16T01:19:28.880Z,26.63
2023-02-16T01:21:30.460Z,31.03
2023-02-16T01:23:32.047Z,29.80
2023-02-16T01:25:34.191Z,30.47
2023-02-16T01:27:39.709Z,29.00
2023-02-16T01:29:41.425Z,29.63
2023-02-16T01:31:44.180Z,29.20
2023-02-16T01:33:45.906Z,29.17
2023-02-16T01:35:50.200Z,26.50
2023-02-16T01:37:51.970Z,26.93
2023-02-16T01:39:53.485Z,30.13
2023-02-16T01:42:11.731Z,27.97
2023-02-16T01:44:23.526Z,28.43
2023-02-16T01:46:53.122Z,27.27
2023-02-16T01:48:56.617Z,29.27
2023-02-16T01:51:07.278Z,29.47
2023-02-16T01:53:20.937Z,26.80
2023-02-16T01:55:27.435Z,26.63
2023-02-16T01:57:44.818Z,26.73
2023-02-16T01:59:49.971Z,26.80
2023-02-16T02:01:59.884Z,26.73
2023-02-16T02:04:21.322Z,27.33
2023-02-16T02:06:32.872Z,30.07
2023-02-16T02:08:58.458Z,27.13
2023-02-16T02:11:26.102Z,27.13
2023-02-16T02:13:52.425Z,25.47
2023-02-16T02:15:58.569Z,26.17
2023-02-16T02:18:01.563Z,27.33
2023-02-16T02:20:15.419Z,26.53
2023-02-16T02:23:12.772Z,28.27
2023-02-16T02:25:28.263Z,29.67
2023-02-16T02:27:57.444Z,27.07
2023-02-16T02:30:23.074Z,26.23
2023-02-16T02:32:59.479Z,26.87
2023-02-16T02:35:22.794Z,26.63
2023-02-16T02:37:29.766Z,28.20
2023-02-16T02:39:56.716Z,29.37
2023-02-16T02:42:10.865Z,29.40
2023-02-16T02:44:23.986Z,28.07
2023-02-16T02:46:30.530Z,26.73
2023-02-16T02:48:34.602Z,30.90
2023-02-16T02:51:11.220Z,28.77
2023-02-16T02:53:15.920Z,30.10
2023-02-16T02:55:37.656Z,29.43
2023-02-16T02:58:04.050Z,30.27
2023-02-16T03:00:24.785Z,30.53
2023-02-16T03:02:28.765Z,30.87
2023-02-16T03:04:34.116Z,29.27
2023-02-16T03:06:43.899Z,30.40
2023-02-16T03:08:50.118Z,29.23
2023-02-16T03:11:30.592Z,28.20
2023-02-16T03:13:42.373Z,28.17
2023-02-16T03:15:46.938Z,30.50
2023-02-16T03:18:07.776Z,29.03
2023-02-16T03:20:32.424Z,28.60
2023-02-16T03:22:54.355Z,26.00
2023-02-16T03:25:14.405Z,27.90
2023-02-16T03:27:57.256Z,28.77
2023-02-16T03:30:03.417Z,27.63
2023-02-16T03:32:08.135Z,28.57
2023-02-16T03:34:12.692Z,29.97
2023-02-16T03:36:14.503Z,26.20
2023-02-16T03:38:16.508Z,27.70
2023-02-16T03:40:30.942Z,28.97
2023-02-16T03:42:32.707Z,29.97
2023-02-16T03:44:34.359Z,28.30
2023-02-16T03:46:35.956Z,27.23
2023-02-16T03:48:37.560Z,27.80
2023-02-16T03:50:39.269Z,29.90
2023-02-16T03:52:40.958Z,29.23
2023-02-16T03:54:45.546Z,30.07
2023-02-16T03:56:47.011Z,30.40
2023-02-16T03:58:48.483Z,30.43
2023-02-16T04:00:51.222Z,28.67
2023-02-16T04:02:52.885Z,27.93
2023-02-16T04:04:54.607Z,26.80
2023-02-16T04:06:56.192Z,26.70
2023-02-16T04:08:57.889Z,26.17
2023-02-16T04:11:00.374Z,26.03
2023-02-16T04:13:02.202Z,26.37
2023-02-16T04:15:09.067Z,28.73
2023-02-16T04:17:10.634Z,26.00
2023-02-16T04:19:12.202Z,29.97
2023-02-16T04:21:13.694Z,26.50
2023-02-16T04:23:15.264Z,26.60
2023-02-16T04:25:20.901Z,28.63
2023-02-16T04:27:22.736Z,27.77
2023-02-16T04:29:24.291Z,28.67
2023-02-16T04:31:25.954Z,28.00
2023-02-16T04:33:28.199Z,29.23
2023-02-16T04:35:30.126Z,27.63
2023-02-16T04:37:31.777Z,31.17
2023-02-16T04:39:33.499Z,25.93
2023-02-16T04:41:35.011Z,28.80
2023-02-16T04:43:36.787Z,27.57
2023-02-16T04:45:38.313Z,27.57
2023-02-16T04:47:40.396Z,26.80
2023-02-16T04:49:42.136Z,29.17
2023-02-16T04:51:43.779Z,25.73
2023-02-16T04:53:45.421Z,25.70
2023-02-16T04:55:50.781Z,26.80
2023-02-16T04:57:52.485Z,30.13
2023-02-16T05:00:03.037Z,28.00
2023-02-16T05:02:05.038Z,24.53
2023-02-16T05:04:06.815Z,27.50
2023-02-16T05:06:08.516Z,27.13
2023-02-16T05:08:10.235Z,26.33
2023-02-16T05:10:11.851Z,23.73
2023-02-16T05:12:31.998Z,25.53
2023-02-16T05:14:45.478Z,27.67
2023-02-16T05:16:47.210Z,27.60
2023-02-16T05:18:48.866Z,22.43
2023-02-16T05:21:08.878Z,27.03
2023-02-16T05:23:10.514Z,28.33
2023-02-16T05:25:12.294Z,25.20
2023-02-16T05:27:19.865Z,30.70
2023-02-16T05:29:25.770Z,27.37
2023-02-16T05:31:30.095Z,29.17
2023-02-16T05:33:31.814Z,28.00
2023-02-16T05:35:34.965Z,28.27
2023-02-16T05:37:36.674Z,28.40
2023-02-16T05:39:38.416Z,27.53
2023-02-16T05:41:40.057Z,28.87
2023-02-16T05:43:41.692Z,25.97
2023-02-16T05:45:43.475Z,27.97
2023-02-16T05:47:47.167Z,26.30
2023-02-16T05:49:51.462Z,27.67
2023-02-16T05:51:53.167Z,28.63
2023-02-16T05:53:55.883Z,25.80
2023-02-16T05:55:57.615Z,24.13
2023-02-16T05:57:59.307Z,24.63
2023-02-16T06:00:01.182Z,23.47
2023-02-16T06:02:02.726Z,23.40
2023-02-16T06:04:04.892Z,23.33
2023-02-16T06:06:06.772Z,26.27
2023-02-16T06:08:11.721Z,26.17
2023-02-16T06:10:21.060Z,23.10
2023-02-16T06:12:22.703Z,27.60
2023-02-16T06:14:24.428Z,30.10
2023-02-16T06:16:28.077Z,31.33
2023-02-16T06:18:29.682Z,30.97
2023-02-16T06:20:31.459Z,27.33
2023-02-16T06:22:35.896Z,26.97
2023-02-16T06:24:38.560Z,27.90
2023-02-16T06:26:40.307Z,26.03
2023-02-16T06:28:42.605Z,24.20
2023-02-16T06:30:44.368Z,23.30
2023-02-16T06:32:49.328Z,23.97
2023-02-16T06:34:53.753Z,21.77
2023-02-16T06:36:55.462Z,21.67
2023-02-16T06:38:57.227Z,23.97
2023-02-16T06:41:01.004Z,21.60
2023-02-16T06:43:02.929Z,21.57
2023-02-16T06:45:04.943Z,22.53
2023-02-16T06:47:06.709Z,24.73
2023-02-16T06:49:12.599Z,24.47
2023-02-16T06:51:20.358Z,23.80
2023-02-16T06:53:21.892Z,23.60
2023-02-16T06:55:23.593Z,23.17
2023-02-16T06:57:25.126Z,23.63
2023-02-16T06:59:26.771Z,22.70
2023-02-16T07:01:29.109Z,25.33
2023-02-16T07:03:30.673Z,23.17
2023-02-16T07:05:35.436Z,27.63
2023-02-16T07:07:37.029Z,25.17
2023-02-16T07:09:38.700Z,23.87
2023-02-16T07:11:40.863Z,25.27
2023-02-16T07:13:42.710Z,26.43
2023-02-16T07:15:44.425Z,26.07
2023-02-16T07:17:46.131Z,23.57
2023-02-16T07:19:47.688Z,23.87
2023-02-16T07:21:49.395Z,24.30
2023-02-16T07:23:51.124Z,24.90
2023-02-16T07:25:52.779Z,24.20
2023-02-16T07:27:57.030Z,25.63
2023-02-16T07:30:02.032Z,26.70
2023-02-16T07:32:04.354Z,25.30
2023-02-16T07:34:06.073Z,25.37
2023-02-16T07:36:09.185Z,23.83
2023-02-16T07:38:11.108Z,21.50
2023-02-16T07:40:13.412Z,25.23
2023-02-16T07:42:18.072Z,23.90
2023-02-16T07:44:22.290Z,23.90
2023-02-16T07:46:24.314Z,23.73
2023-02-16T07:48:34.789Z,21.60
2023-02-16T07:50:37.571Z,22.33
2023-02-16T07:52:39.448Z,26.53
2023-02-16T07:54:40.992Z,26.07
2023-02-16T07:56:42.729Z,23.37
2023-02-16T07:58:47.454Z,23.10
2023-02-16T08:00:49.154Z,22.43
2023-02-16T08:02:50.875Z,23.23
2023-02-16T08:04:53.490Z,24.17
2023-02-16T08:06:55.088Z,21.40
2023-02-16T08:08:59.316Z,20.47
2023-02-16T08:11:07.805Z,20.90
2023-02-16T08:13:09.452Z,22.67
2023-02-16T08:15:13.543Z,21.03
2023-02-16T08:17:16.192Z,21.77
2023-02-16T08:19:17.731Z,21.70
2023-02-16T08:21:21.907Z,22.63
2023-02-16T08:23:23.665Z,22.70
2023-02-16T08:25:25.778Z,19.07
2023-02-16T08:27:27.612Z,18.53
2023-02-16T08:29:33.577Z,19.30
2023-02-16T08:31:38.430Z,22.47
2023-02-16T08:33:40.562Z,24.93
2023-02-16T08:35:43.106Z,20.80
2023-02-16T08:37:47.528Z,23.67
2023-02-16T08:39:49.276Z,22.10
2023-02-16T08:41:51.139Z,22.10
2023-02-16T08:43:53.197Z,21.53
2023-02-16T08:45:55.001Z,21.73
2023-02-16T08:47:57.688Z,23.77
2023-02-16T08:49:59.083Z,23.67
2023-02-16T08:52:01.777Z,22.93
2023-02-16T08:54:08.715Z,20.73
2023-02-16T08:56:11.168Z,21.80
2023-02-16T08:58:15.788Z,21.60
2023-02-16T09:00:35.528Z,22.87
2023-02-16T09:02:37.814Z,23.90
2023-02-16T09:04:39.332Z,23.63
2023-02-16T09:06:44.537Z,22.03
2023-02-16T09:08:50.446Z,20.60
2023-02-16T09:10:52.498Z,20.93
2023-02-16T09:12:54.552Z,24.77
2023-02-16T09:14:56.078Z,21.90
2023-02-16T09:16:59.231Z,24.00
2023-02-16T09:19:01.790Z,22.77
2023-02-16T09:21:11.875Z,22.77
2023-02-16T09:23:13.469Z,21.53
2023-02-16T09:25:16.938Z,21.93
2023-02-16T09:27:20.197Z,20.73
2023-02-16T09:29:21.917Z,22.03
2023-02-16T09:31:28.826Z,20.27
2023-02-16T09:33:30.478Z,21.60
2023-02-16T09:35:32.776Z,21.33
2023-02-16T09:37:34.375Z,23.83
2023-02-16T09:39:39.662Z,21.70
2023-02-16T09:41:51.551Z,21.17
2023-02-16T09:44:21.004Z,20.77
2023-02-16T09:46:25.268Z,19.33
2023-02-16T09:48:45.852Z,20.13
2023-02-16T09:50:54.596Z,19.10
2023-02-16T09:53:20.420Z,19.35
2023-02-16T09:55:24.999Z,19.45
2023-02-16T09:57:46.928Z,20.25
2023-02-16T10:00:29.425Z,18.55
2023-02-16T10:02:55.386Z,18.92
2023-02-16T10:05:15.202Z,21.20
2023-02-16T10:07:54.168Z,20.48
2023-02-16T10:09:57.555Z,18.42
2023-02-16T10:12:19.564Z,17.30
2023-02-16T10:14:41.604Z,18.00
2023-02-16T10:16:52.793Z,18.52
2023-02-16T10:18:56.368Z,19.95
2023-02-16T10:21:09.349Z,18.40
2023-02-16T10:23:32.955Z,17.25
2023-02-16T10:25:52.513Z,17.70
2023-02-16T10:28:16.225Z,18.90
2023-02-16T10:30:20.949Z,19.98
2023-02-16T10:32:29.102Z,20.60
2023-02-16T10:34:42.811Z,20.52
2023-02-16T10:36:53.800Z,19.92
2023-02-16T10:39:22.197Z,19.83
2023-02-16T10:41:31.837Z,17.40
2023-02-16T10:44:12.103Z,20.30
2023-02-16T10:46:30.955Z,20.23
2023-02-16T10:48:34.246Z,19.77
2023-02-16T10:50:38.849Z,20.42
2023-02-16T10:52:42.509Z,18.80
2023-02-16T10:54:44.282Z,20.13
2023-02-16T10:56:52.645Z,17.33
2023-02-16T10:58:54.893Z,16.38
2023-02-16T11:01:08.456Z,16.40
2023-02-16T11:03:12.797Z,17.52
2023-02-16T11:05:27.235Z,16.90
2023-02-16T11:07:31.364Z,18.30
2023-02-16T11:09:33.094Z,17.92
2023-02-16T11:11:40.113Z,18.38
2023-02-16T11:13:42.007Z,15.60
2023-02-16T11:15:43.841Z,15.75
2023-02-16T11:17:58.213Z,17.58
2023-02-16T11:20:05.754Z,14.25
2023-02-16T11:22:25.954Z,15.98
2023-02-16T11:24:33.041Z,15.43
2023-02-16T11:26:34.590Z,14.20
2023-02-16T11:28:41.066Z,14.60
2023-02-16T11:30:43.389Z,14.27
2023-02-16T11:32:45.151Z,15.02
2023-02-16T11:34:49.885Z,13.63
2023-02-16T11:36:53.201Z,13.05
2023-02-16T11:39:09.295Z,16.77
2023-02-16T11:41:12.830Z,14.20
2023-02-16T11:43:18.479Z,14.90
2023-02-16T11:45:36.581Z,13.07
2023-02-16T11:47:42.090Z,13.73
2023-02-16T11:49:43.566Z,12.85
2023-02-16T11:51:45.128Z,16.20
2023-02-16T11:54:00.434Z,12.85
2023-02-16T11:56:17.256Z,13.45
2023-02-16T11:58:28.376Z,12.15
2023-02-16T12:00:31.763Z,13.00
2023-02-16T12:02:39.388Z,12.65
2023-02-16T12:05:14.565Z,14.40
2023-02-16T12:07:23.199Z,12.73
2023-02-16T12:09:42.916Z,13.60
2023-02-16T12:12:08.296Z,12.07
2023-02-16T12:14:23.970Z,11.98
2023-02-16T12:16:40.641Z,13.90
2023-02-16T12:18:58.466Z,12.40
2023-02-16T12:21:45.454Z,13.27
2023-02-16T12:24:13.929Z,11.10
2023-02-16T12:26:39.483Z,12.32
2023-02-16T12:28:51.102Z,12.93
2023-02-16T12:31:34.980Z,11.55
2023-02-16T12:34:10.214Z,11.98
2023-02-16T12:36:50.602Z,10.95
2023-02-16T12:39:31.207Z,13.98
2023-02-16T12:41:56.049Z,11.85
2023-02-16T12:44:06.614Z,14.20
2023-02-16T12:46:17.601Z,10.95
2023-02-16T12:48:40.323Z,11.93
2023-02-16T12:51:04.967Z,10.07
2023-02-16T12:53:18.692Z,10.95
2023-02-16T12:55:43.141Z,11.40
2023-02-16T12:58:13.805Z,11.13
2023-02-16T13:00:30.899Z,11.05
2023-02-16T13:02:42.517Z,11.18
2023-02-16T13:04:53.902Z,12.27
2023-02-16T13:07:06.184Z,11.95
2023-02-16T13:09:36.350Z,9.95
2023-02-16T13:11:49.341Z,12.35
2023-02-16T13:13:56.864Z,14.75
2023-02-16T13:16:29.159Z,12.07
2023-02-16T13:18:36.046Z,9.77
2023-02-16T13:20:41.360Z,9.75
2023-02-16T13:23:00.775Z,10.77
2023-02-16T13:25:09.976Z,9.15
2023-02-16T13:27:27.738Z,9.85
2023-02-16T13:29:45.288Z,10.73
2023-02-16T13:32:14.762Z,11.27
2023-02-16T13:34:47.522Z,10.35
2023-02-16T13:37:35.912Z,10.32
2023-02-16T13:39:57.681Z,10.85
2023-02-16T13:42:16.533Z,10.65
2023-02-16T13:44:28.214Z,9.93
2023-02-16T13:46:37.950Z,10.70
2023-02-16T13:48:47.355Z,11.13
2023-02-16T13:50:57.470Z,9.68
2023-02-16T13:53:19.181Z,9.75
2023-02-16T13:55:30.158Z,10.35
2023-02-16T13:57:50.432Z,10.02
2023-02-16T14:00:00.774Z,10.52
2023-02-16T14:02:03.512Z,11.07
2023-02-16T14:04:11.765Z,10.13
2023-02-16T14:06:37.989Z,11.23
2023-02-16T14:08:40.389Z,11.65
2023-02-16T14:10:53.082Z,10.85
2023-02-16T14:12:54.878Z,11.02
2023-02-16T14:15:00.679Z,10.32
2023-02-16T14:17:23.469Z,11.90
2023-02-16T14:19:26.681Z,11.80
2023-02-16T14:21:37.761Z,10.98
2023-02-16T14:23:39.522Z,11.48
2023-02-16T14:25:41.344Z,13.93
2023-02-16T14:27:58.800Z,12.50
2023-02-16T14:30:12.612Z,10.55
2023-02-16T14:32:31.433Z,10.30
2023-02-16T14:34:41.310Z,12.93
2023-02-16T14:37:17.141Z,10.00
2023-02-16T14:39:22.825Z,10.35
2023-02-16T14:41:33.681Z,11.82
2023-02-16T14:43:49.012Z,11.73
2023-02-16T14:45:51.053Z,13.35
2023-02-16T14:48:26.797Z,11.60
2023-02-16T14:50:51.044Z,11.30
2023-02-16T14:53:17.555Z,12.35
2023-02-16T14:55:52.022Z,12.25
2023-02-16T14:57:57.210Z,14.77
2023-02-16T15:00:33.725Z,13.18
2023-02-16T15:02:40.824Z,16.02
2023-02-16T15:04:46.089Z,13.43
2023-02-16T15:06:50.731Z,13.10
2023-02-16T15:08:57.094Z,14.10
2023-02-16T15:10:59.532Z,14.40
2023-02-16T15:13:03.417Z,13.50
2023-02-16T15:15:10.255Z,12.18
2023-02-16T15:17:39.486Z,13.52
2023-02-16T15:19:42.194Z,11.68
2023-02-16T15:21:44.722Z,11.98
2023-02-16T15:23:52.198Z,11.75
2023-02-16T15:26:00.060Z,12.52
2023-02-16T15:28:05.595Z,13.15
2023-02-16T15:30:23.248Z,10.68
2023-02-16T15:32:24.945Z,11.98
2023-02-16T15:34:33.304Z,10.30
2023-02-16T15:36:40.328Z,11.98
2023-02-16T15:38:50.983Z,12.75
2023-02-16T15:41:01.818Z,11.27
2023-02-16T15:43:10.043Z,10.85
2023-02-16T15:45:27.158Z,11.80
2023-02-16T15:47:31.008Z,11.98
2023-02-16T15:49:34.901Z,11.38
2023-02-16T15:51:38.410Z,11.25
2023-02-16T15:53:50.647Z,12.88
2023-02-16T15:55:52.605Z,12.27
2023-02-16T15:57:54.445Z,16.67
2023-02-16T16:00:04.013Z,17.45
2023-02-16T16:02:20.885Z,17.00
2023-02-16T16:04:26.375Z,16.08
2023-02-16T16:06:34.190Z,16.55
2023-02-16T16:08:35.932Z,15.55
2023-02-16T16:10:39.857Z,15.57
2023-02-16T16:12:42.180Z,15.25
2023-02-16T16:14:53.264Z,16.15
2023-02-16T16:17:07.140Z,15.75
2023-02-16T16:19:17.600Z,17.02
2023-02-16T16:21:30.899Z,20.17
2023-02-16T16:23:32.787Z,20.25
2023-02-16T16:25:34.511Z,18.95
2023-02-16T16:27:37.348Z,20.48
2023-02-16T16:29:48.208Z,18.92
2023-02-16T16:31:53.549Z,22.38
2023-02-16T16:34:04.066Z,20.00
2023-02-16T16:36:12.568Z,18.40
2023-02-16T16:38:27.894Z,17.38
2023-02-16T16:40:37.777Z,16.60
2023-02-16T16:42:39.483Z,17.60
2023-02-16T16:44:54.284Z,14.95
2023-02-16T16:46:56.061Z,13.77
2023-02-16T16:49:05.556Z,15.73
2023-02-16T16:51:27.785Z,12.88
2023-02-16T16:53:29.442Z,12.52
2023-02-16T16:55:34.122Z,11.85
2023-02-16T16:57:35.732Z,14.90
2023-02-16T16:59:38.724Z,12.25
2023-02-16T17:01:41.648Z,11.38
2023-02-16T17:03:43.420Z,12.60
2023-02-16T17:05:48.602Z,10.73
2023-02-16T17:07:51.773Z,12.88
2023-02-16T17:09:53.530Z,11.27
2023-02-16T17:11:55.720Z,12.88
2023-02-16T17:14:27.029Z,10.05
2023-02-16T17:16:32.827Z,12.00
2023-02-16T17:18:34.651Z,10.40
2023-02-16T17:20:38.953Z,9.25
2023-02-16T17:22:40.609Z,11.68
2023-02-16T17:24:42.908Z,9.75
2023-02-16T17:26:44.586Z,8.80
2023-02-16T17:28:46.028Z,9.52
2023-02-16T17:30:48.050Z,9.25
2023-02-16T17:32:55.826Z,9.77
2023-02-16T17:35:00.086Z,8.43
2023-02-16T17:37:05.502Z,8.80
2023-02-16T17:39:09.646Z,7.20
2023-02-16T17:41:26.493Z,7.63
2023-02-16T17:43:28.537Z,7.30
2023-02-16T17:45:30.203Z,8.50
2023-02-16T17:47:32.168Z,9.07
2023-02-16T17:49:33.772Z,8.40
2023-02-16T17:51:36.537Z,9.18
2023-02-16T17:53:38.276Z,7.63
2023-02-16T17:55:40.099Z,8.80
2023-02-16T17:57:41.917Z,9.68
2023-02-16T17:59:43.557Z,10.88
2023-02-16T18:01:45.628Z,11.48
2023-02-16T18:03:47.816Z,13.18
2023-02-16T18:05:49.985Z,14.23
2023-02-16T18:07:52.242Z,15.98
2023-02-16T18:09:54.710Z,21.20
2023-02-16T18:11:56.472Z,24.08
2023-02-16T18:13:58.031Z,25.67
2023-02-16T18:16:03.817Z,27.63
2023-02-16T18:18:09.081Z,24.58
2023-02-16T18:20:16.030Z,33.10
2023-02-16T18:22:17.830Z,42.13
2023-02-16T18:24:21.182Z,51.33
2023-02-16T18:26:23.678Z,60.08
2023-02-16T18:28:28.240Z,71.32
2023-02-16T18:30:33.173Z,67.18
2023-02-16T18:32:35.148Z,60.60
2023-02-16T18:34:37.481Z,46.90
2023-02-16T18:36:43.570Z,36.15
2023-02-16T18:38:48.084Z,31.95
2023-02-16T18:40:52.163Z,28.02
2023-02-16T18:42:54.025Z,24.13
2023-02-16T18:44:55.701Z,22.70
2023-02-16T18:46:58.056Z,23.00
2023-02-16T18:48:59.722Z,23.45
2023-02-16T18:51:09.711Z,18.63
2023-02-16T18:53:11.487Z,19.50
2023-02-16T18:55:25.139Z,20.90
2023-02-16T18:57:26.984Z,19.58
2023-02-16T18:59:32.949Z,21.83
2023-02-16T19:01:35.035Z,29.13
2023-02-16T19:03:36.848Z,28.38
2023-02-16T19:05:39.915Z,27.95
2023-02-16T19:07:41.766Z,23.33
2023-02-16T19:09:45.915Z,24.30
2023-02-16T19:11:47.689Z,23.42
2023-02-16T19:13:49.492Z,23.40
2023-02-16T19:16:01.632Z,25.17
2023-02-16T19:18:03.569Z,19.52
2023-02-16T19:20:11.556Z,19.13
2023-02-16T19:22:13.984Z,21.23
2023-02-16T19:24:15.567Z,21.00
2023-02-16T19:26:18.939Z,18.55
2023-02-16T19:28:21.455Z,19.45
2023-02-16T19:30:25.732Z,22.30
2023-02-16T19:32:27.399Z,25.00
2023-02-16T19:34:28.986Z,24.20
2023-02-16T19:36:34.277Z,24.85
2023-02-16T19:38:38.410Z,22.38
2023-02-16T19:40:40.111Z,22.92
2023-02-16T19:42:43.523Z,20.67
2023-02-16T19:44:45.131Z,23.15
2023-02-16T19:46:46.767Z,20.38
2023-02-16T19:48:48.813Z,20.95
2023-02-16T19:50:55.836Z,21.15
2023-02-16T19:52:58.538Z,21.65
2023-02-16T19:55:00.142Z,21.13
2023-02-16T19:57:02.909Z,18.73
2023-02-16T19:59:04.460Z,19.23
2023-02-16T20:01:11.454Z,20.38
2023-02-16T20:03:13.776Z,22.00
2023-02-16T20:05:30.862Z,27.92
2023-02-16T20:07:35.941Z,26.48
2023-02-16T20:09:37.619Z,25.77
2023-02-16T20:11:40.180Z,26.40
2023-02-16T20:13:44.598Z,26.02
2023-02-16T20:15:46.346Z,28.08
2023-02-16T20:17:48.053Z,31.55
2023-02-16T20:19:49.755Z,27.75
2023-02-16T20:21:54.683Z,26.65
2023-02-16T20:23:59.962Z,28.58
2023-02-16T20:26:10.570Z,26.23
2023-02-16T20:28:12.189Z,28.08
2023-02-16T20:30:20.403Z,26.90
2023-02-16T20:32:26.608Z,26.30
2023-02-16T20:34:28.297Z,28.33
2023-02-16T20:36:30.114Z,31.45
2023-02-16T20:38:32.853Z,31.42
2023-02-16T20:40:34.506Z,32.85
2023-02-16T20:42:36.187Z,31.70
2023-02-16T20:44:38.158Z,31.98
2023-02-16T20:46:41.165Z,32.55
2023-02-16T20:48:44.003Z,31.63
2023-02-16T20:50:45.693Z,33.40
2023-02-16T20:52:47.494Z,31.90
2023-02-16T20:54:49.046Z,27.65
2023-02-16T20:56:50.726Z,26.77
2023-02-16T20:58:54.237Z,27.45
2023-02-16T21:00:56.086Z,24.08
2023-02-16T21:02:58.053Z,23.80
2023-02-16T21:04:59.957Z,25.73
2023-02-16T21:07:01.684Z,21.73
2023-02-16T21:09:04.864Z,23.52
2023-02-16T21:11:07.531Z,22.05
2023-02-16T21:13:09.475Z,22.70
2023-02-16T21:15:11.666Z,19.67
2023-02-16T21:17:13.598Z,18.33
2023-02-16T21:19:22.799Z,18.52
2023-02-16T21:21:25.396Z,17.55
2023-02-16T21:23:27.626Z,23.88
2023-02-16T21:25:30.299Z,21.23
2023-02-16T21:27:31.963Z,22.60
2023-02-16T21:29:33.699Z,23.70
2023-02-16T21:31:35.465Z,22.08
2023-02-16T21:33:37.738Z,21.83
2023-02-16T21:35:39.458Z,21.85
2023-02-16T21:37:41.227Z,22.08
2023-02-16T21:40:04.193Z,21.55
2023-02-16T21:42:05.860Z,22.05
2023-02-16T21:44:11.204Z,21.13
2023-02-16T21:46:12.946Z,21.17
2023-02-16T21:48:33.320Z,22.52
2023-02-16T21:50:38.086Z,21.00
2023-02-16T21:52:39.769Z,18.48
2023-02-16T21:54:59.736Z,16.77
2023-02-16T21:57:01.461Z,17.70
2023-02-16T21:59:05.295Z,20.50
2023-02-16T22:01:06.963Z,16.20
2023-02-16T22:03:09.596Z,16.02
2023-02-16T22:05:12.397Z,16.48
2023-02-16T22:07:14.254Z,14.80
2023-02-16T22:09:21.642Z,14.63
2023-02-16T22:11:23.377Z,14.85
2023-02-16T22:13:25.020Z,15.60
2023-02-16T22:15:26.455Z,14.38
2023-02-16T22:17:28.135Z,14.38
2023-02-16T22:19:29.934Z,13.20
2023-02-16T22:21:31.828Z,14.00
2023-02-16T22:23:33.955Z,15.05
2023-02-16T22:25:39.935Z,15.20
2023-02-16T22:27:44.784Z,14.82
2023-02-16T22:29:46.399Z,14.60
2023-02-16T22:31:49.263Z,14.73
2023-02-16T22:34:02.864Z,13.68
2023-02-16T22:36:07.172Z,13.65
2023-02-16T22:38:09.045Z,15.10
2023-02-16T22:40:10.691Z,15.88
2023-02-16T22:42:12.449Z,15.18
2023-02-16T22:44:15.629Z,18.27
2023-02-16T22:46:17.537Z,14.65
2023-02-16T22:48:19.226Z,14.18
2023-02-16T22:50:22.884Z,15.50
2023-02-16T22:52:24.665Z,14.05
2023-02-16T22:54:26.224Z,15.10
2023-02-16T22:56:28.389Z,15.57
2023-02-16T22:58:30.078Z,14.95
2023-02-16T23:00:31.866Z,15.93
2023-02-16T23:02:33.576Z,15.32
2023-02-16T23:04:35.094Z,16.77
2023-02-16T23:06:37.102Z,18.70
2023-02-16T23:08:46.339Z,19.00
2023-02-16T23:11:01.328Z,17.73
2023-02-16T23:13:06.198Z,18.48
2023-02-16T23:15:08.066Z,20.85
2023-02-16T23:17:15.446Z,20.27
2023-02-16T23:19:20.586Z,18.55
2023-02-16T23:21:32.941Z,20.70
2023-02-16T23:23:34.771Z,20.33
2023-02-16T23:25:36.351Z,23.70
2023-02-16T23:27:37.973Z,24.85
2023-02-16T23:29:39.463Z,24.90
2023-02-16T23:31:43.329Z,27.13
2023-02-16T23:33:45.249Z,24.52
2023-02-16T23:35:46.816Z,20.92
2023-02-16T23:37:51.487Z,17.60
2023-02-16T23:39:53.091Z,18.60
2023-02-16T23:41:57.551Z,14.30
2023-02-16T23:44:01.074Z,14.52
2023-02-16T23:46:06.724Z,16.77
2023-02-16T23:48:08.605Z,15.82
2023-02-16T23:50:14.407Z,15.63
2023-02-16T23:52:17.298Z,15.18
2023-02-16T23:54:18.933Z,13.27
2023-02-16T23:56:28.065Z,13.13
2023-02-16T23:58:34.033Z,14.60
